createdAt,value
2022-11-30T00:01:15.297Z,3.40
2022-11-30T00:03:43.324Z,3.67
2022-11-30T00:06:13.396Z,3.77
2022-11-30T00:08:40.969Z,3.70
2022-11-30T00:11:18.487Z,3.70
2022-11-30T00:13:45.676Z,3.70
2022-11-30T00:16:13.066Z,3.60
2022-11-30T00:18:40.559Z,3.87
2022-11-30T00:21:10.909Z,2.97
2022-11-30T00:23:40.112Z,3.47
2022-11-30T00:26:10.703Z,3.60
2022-11-30T00:28:38.764Z,3.43
2022-11-30T00:31:08.534Z,3.67
2022-11-30T00:33:37.728Z,3.60
2022-11-30T00:36:08.160Z,3.83
2022-11-30T00:38:36.043Z,3.53
2022-11-30T00:41:03.940Z,3.80
2022-11-30T00:43:31.559Z,3.80
2022-11-30T00:45:58.859Z,3.90
2022-11-30T00:48:26.260Z,3.43
2022-11-30T00:50:53.672Z,3.40
2022-11-30T00:53:21.532Z,3.30
2022-11-30T00:55:49.306Z,3.10
2022-11-30T00:58:17.228Z,3.40
2022-11-30T01:00:44.818Z,3.20
2022-11-30T01:03:12.852Z,10.40
2022-11-30T01:05:40.763Z,3.17
2022-11-30T01:08:10.173Z,5.37
2022-11-30T01:10:39.298Z,3.30
2022-11-30T01:13:07.255Z,3.23
2022-11-30T01:15:43.675Z,2.90
2022-11-30T01:18:11.285Z,2.70
2022-11-30T01:20:42.810Z,2.80
2022-11-30T01:23:10.412Z,3.13
2022-11-30T01:25:37.940Z,3.20
2022-11-30T01:28:05.441Z,3.37
2022-11-30T01:30:32.681Z,3.30
2022-11-30T01:33:04.429Z,3.10
2022-11-30T01:35:31.614Z,3.30
2022-11-30T01:37:58.737Z,3.57
2022-11-30T01:40:25.998Z,3.30
2022-11-30T01:42:53.231Z,3.37
2022-11-30T01:45:20.718Z,3.07
2022-11-30T01:47:52.259Z,3.00
2022-11-30T01:50:33.261Z,2.93
2022-11-30T01:53:01.969Z,3.40
2022-11-30T01:55:42.995Z,2.80
2022-11-30T01:58:16.702Z,3.57
2022-11-30T02:00:47.727Z,2.50
2022-11-30T02:03:41.523Z,3.53
2022-11-30T02:06:08.713Z,3.27
2022-11-30T02:08:36.100Z,3.40
2022-11-30T02:11:06.194Z,16.87
2022-11-30T02:13:50.335Z,3.00
2022-11-30T02:16:36.317Z,3.40
2022-11-30T02:19:44.134Z,3.37
2022-11-30T02:22:11.274Z,2.90
2022-11-30T02:25:14.326Z,3.30
2022-11-30T02:28:00.166Z,3.60
2022-11-30T02:30:28.741Z,2.80
2022-11-30T02:33:13.967Z,2.93
2022-11-30T02:35:49.194Z,3.10
2022-11-30T02:38:22.661Z,3.10
2022-11-30T02:40:49.968Z,3.10
2022-11-30T02:43:19.901Z,3.20
2022-11-30T02:45:58.998Z,2.80
2022-11-30T02:48:44.098Z,2.97
2022-11-30T02:51:16.059Z,3.57
2022-11-30T02:53:43.985Z,2.87
2022-11-30T02:56:11.149Z,2.77
2022-11-30T02:58:39.314Z,3.10
2022-11-30T03:01:06.825Z,2.87
2022-11-30T03:03:34.174Z,2.90
2022-11-30T03:06:01.353Z,3.33
2022-11-30T03:08:28.490Z,10.20
2022-11-30T03:10:55.670Z,3.90
2022-11-30T03:13:22.883Z,3.50
2022-11-30T03:15:50.226Z,23.73
2022-11-30T03:18:17.520Z,2.73
2022-11-30T03:20:44.682Z,9.40
2022-11-30T03:23:12.274Z,12.47
2022-11-30T03:25:39.600Z,3.10
2022-11-30T03:28:06.877Z,21.17
2022-11-30T03:30:34.327Z,5.93
2022-11-30T03:33:01.635Z,3.20
2022-11-30T03:35:28.877Z,7.37
2022-11-30T03:37:56.332Z,2.50
2022-11-30T03:40:23.541Z,4.23
2022-11-30T03:42:50.768Z,5.73
2022-11-30T03:45:18.417Z,3.07
2022-11-30T03:47:46.056Z,17.20
2022-11-30T03:50:13.273Z,8.53
2022-11-30T03:52:40.742Z,2.43
2022-11-30T03:55:08.522Z,2.40
2022-11-30T03:57:35.692Z,25.10
2022-11-30T04:00:04.295Z,2.30
2022-11-30T04:02:31.430Z,2.20
2022-11-30T04:04:59.011Z,2.27
2022-11-30T04:07:26.992Z,2.53
2022-11-30T04:09:54.194Z,4.00
2022-11-30T04:12:21.679Z,2.60
2022-11-30T04:14:49.074Z,2.53
2022-11-30T04:17:16.498Z,2.63
2022-11-30T04:19:43.682Z,3.77
2022-11-30T04:22:10.907Z,2.30
2022-11-30T04:24:38.108Z,2.43
2022-11-30T04:27:05.425Z,2.40
2022-11-30T04:29:32.864Z,2.60
2022-11-30T04:32:00.169Z,2.83
2022-11-30T04:34:28.775Z,2.47
2022-11-30T04:37:00.128Z,2.87
2022-11-30T04:39:27.788Z,2.97
2022-11-30T04:41:55.012Z,3.17
2022-11-30T04:44:22.384Z,4.40
2022-11-30T04:46:49.611Z,2.60
2022-11-30T04:49:16.920Z,2.70
2022-11-30T04:51:44.194Z,2.47
2022-11-30T04:54:11.476Z,2.60
2022-11-30T04:56:38.639Z,2.23
2022-11-30T04:59:05.866Z,2.63
2022-11-30T05:01:33.115Z,2.30
2022-11-30T05:04:00.398Z,2.53
2022-11-30T05:06:27.905Z,2.30
2022-11-30T05:08:55.276Z,2.93
2022-11-30T05:11:22.512Z,2.57
2022-11-30T05:13:49.776Z,2.63
2022-11-30T05:16:17.019Z,2.47
2022-11-30T05:18:44.357Z,2.57
2022-11-30T05:21:11.976Z,2.27
2022-11-30T05:23:39.098Z,2.10
2022-11-30T05:26:06.235Z,2.40
2022-11-30T05:28:33.534Z,2.20
2022-11-30T05:31:07.442Z,2.00
2022-11-30T05:33:35.036Z,1.90
2022-11-30T05:36:05.790Z,2.10
2022-11-30T05:38:36.179Z,2.10
2022-11-30T05:41:03.521Z,2.33
2022-11-30T05:43:30.707Z,2.33
2022-11-30T05:46:02.680Z,2.00
2022-11-30T05:48:29.986Z,1.97
2022-11-30T05:51:05.620Z,1.80
2022-11-30T05:53:33.569Z,2.47
2022-11-30T05:56:05.902Z,2.20
2022-11-30T05:58:33.499Z,2.13
2022-11-30T06:01:00.839Z,2.47
2022-11-30T06:03:32.904Z,2.60
2022-11-30T06:06:00.346Z,2.37
2022-11-30T06:08:28.269Z,2.37
2022-11-30T06:10:59.777Z,2.40
2022-11-30T06:13:28.973Z,2.40
2022-11-30T06:16:00.334Z,2.50
2022-11-30T06:18:27.582Z,2.37
2022-11-30T06:20:54.738Z,2.23
2022-11-30T06:23:21.961Z,2.50
2022-11-30T06:25:49.189Z,2.53
2022-11-30T06:28:16.422Z,2.57
2022-11-30T06:30:44.055Z,2.80
2022-11-30T06:33:11.259Z,2.27
2022-11-30T06:35:44.367Z,2.50
2022-11-30T06:38:11.545Z,2.00
2022-11-30T06:40:38.896Z,2.40
2022-11-30T06:43:06.240Z,2.30
2022-11-30T06:45:33.504Z,3.70
2022-11-30T06:48:00.729Z,2.20
2022-11-30T06:50:27.927Z,2.80
2022-11-30T06:52:56.824Z,2.63
2022-11-30T06:55:24.308Z,2.50
2022-11-30T06:57:51.564Z,2.80
2022-11-30T07:00:19.333Z,2.50
2022-11-30T07:02:46.557Z,2.53
2022-11-30T07:05:13.890Z,2.73
2022-11-30T07:07:41.174Z,2.93
2022-11-30T07:10:09.308Z,2.83
2022-11-30T07:12:36.578Z,2.93
2022-11-30T07:15:04.859Z,2.80
2022-11-30T07:17:32.014Z,3.23
2022-11-30T07:19:59.517Z,2.97
2022-11-30T07:22:26.716Z,3.70
2022-11-30T07:25:12.369Z,3.43
2022-11-30T07:27:39.608Z,2.80
2022-11-30T07:30:07.544Z,2.50
2022-11-30T07:32:34.746Z,2.90
2022-11-30T07:35:02.023Z,3.20
2022-11-30T07:37:29.311Z,3.47
2022-11-30T07:39:56.653Z,3.43
2022-11-30T07:42:23.849Z,3.60
2022-11-30T07:44:56.937Z,3.63
2022-11-30T07:47:25.924Z,3.93
2022-11-30T07:49:53.117Z,3.80
2022-11-30T07:52:20.315Z,3.50
2022-11-30T07:54:47.663Z,3.70
2022-11-30T07:57:15.075Z,3.30
2022-11-30T07:59:42.229Z,3.20
2022-11-30T08:02:11.070Z,3.50
2022-11-30T08:04:38.368Z,3.50
2022-11-30T08:07:05.599Z,3.40
2022-11-30T08:09:32.837Z,3.23
2022-11-30T08:12:00.167Z,3.10
2022-11-30T08:14:27.290Z,5.23
2022-11-30T08:16:54.542Z,9.47
2022-11-30T08:19:21.805Z,2.77
2022-11-30T08:21:49.121Z,3.30
2022-11-30T08:24:16.423Z,3.57
2022-11-30T08:26:43.728Z,3.77
2022-11-30T08:29:11.849Z,3.40
2022-11-30T08:31:39.341Z,3.50
2022-11-30T08:34:09.874Z,3.00
2022-11-30T08:36:37.294Z,3.20
2022-11-30T08:39:05.885Z,3.40
2022-11-30T08:41:35.443Z,3.10
2022-11-30T08:44:03.286Z,2.97
2022-11-30T08:52:16.872Z,2.90
2022-11-30T08:54:47.034Z,3.53
2022-11-30T08:57:16.485Z,3.47
2022-11-30T08:59:44.117Z,3.60
2022-11-30T09:02:14.245Z,3.17
2022-11-30T09:04:41.699Z,3.60
2022-11-30T09:07:09.744Z,3.63
2022-11-30T09:09:37.828Z,3.43
2022-11-30T09:12:05.709Z,3.50
2022-11-30T09:14:33.028Z,3.83
2022-11-30T09:17:00.230Z,3.70
2022-11-30T09:19:27.543Z,3.60
2022-11-30T09:21:54.817Z,3.40
2022-11-30T09:24:22.417Z,3.60
2022-11-30T09:26:49.659Z,3.17
2022-11-30T09:29:16.963Z,3.80
2022-11-30T09:31:44.247Z,3.10
2022-11-30T09:34:12.541Z,3.57
2022-11-30T09:36:39.989Z,3.57
2022-11-30T09:39:13.194Z,6.03
2022-11-30T09:42:04.670Z,3.37
2022-11-30T09:44:50.645Z,3.03
2022-11-30T09:48:03.747Z,2.47
2022-11-30T09:50:37.647Z,2.67
2022-11-30T09:53:10.689Z,2.70
2022-11-30T09:55:41.613Z,2.77
2022-11-30T09:58:23.156Z,2.80
2022-11-30T10:00:50.478Z,3.17
2022-11-30T10:03:20.669Z,3.67
2022-11-30T10:05:50.458Z,4.30
2022-11-30T10:08:44.893Z,3.23
2022-11-30T10:12:02.087Z,9.97
2022-11-30T10:15:13.313Z,3.10
2022-11-30T10:17:53.184Z,3.23
2022-11-30T10:20:49.013Z,3.90
2022-11-30T10:23:27.305Z,2.60
2022-11-30T10:26:17.217Z,5.80
2022-11-30T10:29:22.754Z,4.07
2022-11-30T10:31:56.570Z,69.43
2022-11-30T10:34:35.519Z,16.40
2022-11-30T10:37:37.543Z,46.83
2022-11-30T10:40:14.946Z,3.50
2022-11-30T10:42:44.826Z,10.17
2022-11-30T10:45:15.403Z,4.13
2022-11-30T10:48:08.099Z,5.87
2022-11-30T10:50:35.293Z,21.77
2022-11-30T10:53:02.876Z,17.30
2022-11-30T10:55:36.292Z,4.83
2022-11-30T10:58:25.957Z,34.07
2022-11-30T11:01:11.584Z,57.03
2022-11-30T11:03:39.051Z,48.23
2022-11-30T11:06:22.823Z,76.63
2022-11-30T11:08:51.170Z,27.07
2022-11-30T11:11:38.375Z,4.63
2022-11-30T11:14:16.499Z,4.00
2022-11-30T11:17:00.459Z,5.23
2022-11-30T11:19:40.346Z,30.13
2022-11-30T11:22:26.683Z,3.50
2022-11-30T11:25:30.447Z,71.60
2022-11-30T11:28:14.292Z,39.53
2022-11-30T11:30:42.416Z,15.03
2022-11-30T11:33:12.372Z,3.27
2022-11-30T11:35:45.440Z,283.67
2022-11-30T11:38:24.787Z,261.03
2022-11-30T11:41:29.765Z,337.93
2022-11-30T11:44:04.765Z,18.60
2022-11-30T11:46:34.622Z,9.67
2022-11-30T11:49:22.081Z,13.20
2022-11-30T11:52:01.069Z,115.60
2022-11-30T11:54:41.527Z,43.77
2022-11-30T11:57:12.888Z,63.80
2022-11-30T11:59:59.211Z,172.80
2022-11-30T12:02:42.657Z,134.63
2022-11-30T12:05:16.776Z,191.17
2022-11-30T12:08:05.726Z,106.57
2022-11-30T12:10:57.424Z,13.33
2022-11-30T12:13:34.524Z,18.57
2022-11-30T12:16:40.890Z,84.97
2022-11-30T12:19:17.693Z,142.17
2022-11-30T12:22:23.236Z,122.87
2022-11-30T12:25:05.729Z,2.80
2022-11-30T12:27:54.073Z,3.03
2022-11-30T12:30:32.454Z,78.37
2022-11-30T12:33:18.256Z,107.73
2022-11-30T12:36:18.506Z,16.70
2022-11-30T12:38:58.867Z,42.43
2022-11-30T12:41:32.178Z,10.67
2022-11-30T12:44:17.762Z,8.33
2022-11-30T12:47:17.888Z,41.47
2022-11-30T12:49:53.230Z,4.80
2022-11-30T12:52:47.339Z,2.27
2022-11-30T12:55:34.566Z,2.23
2022-11-30T12:58:16.849Z,2.63
2022-11-30T13:00:50.345Z,4.50
2022-11-30T13:03:50.826Z,8.57
2022-11-30T13:06:30.386Z,2.73
2022-11-30T13:09:00.971Z,2.17
2022-11-30T13:11:40.020Z,5.23
2022-11-30T13:14:16.240Z,2.83
2022-11-30T13:16:44.568Z,2.50
2022-11-30T13:19:28.907Z,2.27
2022-11-30T13:22:02.824Z,2.67
2022-11-30T13:24:39.870Z,2.43
2022-11-30T13:27:16.414Z,3.13
2022-11-30T13:30:07.394Z,2.20
2022-11-30T13:32:57.240Z,2.03
2022-11-30T13:35:28.901Z,2.20
2022-11-30T13:41:07.459Z,2.40
2022-11-30T13:43:45.982Z,2.30
2022-11-30T13:46:26.093Z,2.47
2022-11-30T13:49:19.885Z,2.30
2022-11-30T13:52:01.421Z,2.10
2022-11-30T13:54:47.909Z,2.90
2022-11-30T13:57:30.406Z,34.97
2022-11-30T14:00:03.359Z,7.10
2022-11-30T14:02:42.069Z,5.30
2022-11-30T14:05:18.373Z,2.60
2022-11-30T14:07:51.560Z,2.63
2022-11-30T14:10:35.539Z,3.00
2022-11-30T14:13:29.759Z,2.60
2022-11-30T14:16:00.787Z,2.73
2022-11-30T14:18:40.523Z,2.70
2022-11-30T14:21:25.310Z,2.33
2022-11-30T14:23:59.242Z,2.50
2022-11-30T14:26:40.534Z,2.20
2022-11-30T14:29:07.625Z,2.67
2022-11-30T14:31:41.082Z,3.00
2022-11-30T14:34:32.792Z,3.30
2022-11-30T14:37:05.629Z,3.03
2022-11-30T14:39:35.507Z,3.37
2022-11-30T14:42:04.909Z,3.83
2022-11-30T14:44:36.698Z,3.47
2022-11-30T14:47:28.596Z,3.57
2022-11-30T14:49:57.336Z,3.57
2022-11-30T14:52:42.575Z,3.60
2022-11-30T14:55:32.107Z,4.30
2022-11-30T14:58:21.304Z,3.37
2022-11-30T15:00:48.928Z,3.43
2022-11-30T15:03:33.560Z,3.57
2022-11-30T15:06:05.557Z,3.97
2022-11-30T15:08:49.991Z,3.27
2022-11-30T15:11:18.391Z,5.67
2022-11-30T15:13:48.987Z,3.90
2022-11-30T15:16:36.669Z,4.80
2022-11-30T15:19:25.268Z,3.50
2022-11-30T15:21:53.700Z,3.53
2022-11-30T15:24:21.772Z,8.70
2022-11-30T15:27:10.009Z,5.97
2022-11-30T15:29:41.690Z,5.27
2022-11-30T15:32:17.075Z,5.50
2022-11-30T15:34:57.476Z,7.47
2022-11-30T15:37:39.087Z,5.20
2022-11-30T15:40:09.356Z,5.17
2022-11-30T15:42:44.535Z,4.20
2022-11-30T15:45:18.713Z,3.83
2022-11-30T15:47:46.258Z,3.63
2022-11-30T15:50:29.253Z,3.53
2022-11-30T15:52:59.125Z,3.93
2022-11-30T15:55:46.942Z,4.30
2022-11-30T15:58:26.025Z,4.13
2022-11-30T16:01:18.700Z,3.90
2022-11-30T16:04:03.562Z,3.80
2022-11-30T16:06:45.764Z,3.30
2022-11-30T16:09:22.766Z,4.10
2022-11-30T16:11:54.407Z,3.90
2022-11-30T16:14:21.601Z,4.70
2022-11-30T16:16:49.407Z,4.90
2022-11-30T16:19:16.684Z,4.27
2022-11-30T16:21:44.281Z,4.70
2022-11-30T16:24:15.989Z,4.60
2022-11-30T16:26:50.904Z,4.33
2022-11-30T16:29:18.944Z,4.23
2022-11-30T16:31:46.213Z,4.23
2022-11-30T16:34:13.698Z,5.00
2022-11-30T16:36:40.890Z,5.10
2022-11-30T16:39:12.607Z,5.63
2022-11-30T16:41:39.992Z,5.53
2022-11-30T16:44:13.447Z,5.63
2022-11-30T16:46:40.778Z,6.23
2022-11-30T16:49:07.937Z,6.50
2022-11-30T16:51:36.331Z,6.47
2022-11-30T16:54:04.549Z,5.63
2022-11-30T16:56:31.697Z,7.93
2022-11-30T16:59:00.010Z,8.70
2022-11-30T17:01:36.399Z,8.37
2022-11-30T17:04:24.633Z,7.77
2022-11-30T17:06:57.383Z,6.43
2022-11-30T17:09:30.535Z,5.97
2022-11-30T17:11:57.880Z,7.93
2022-11-30T17:14:25.064Z,8.90
2022-11-30T17:16:52.374Z,8.43
2022-11-30T17:19:19.592Z,8.80
2022-11-30T17:21:48.543Z,8.70
2022-11-30T17:24:16.077Z,6.17
2022-11-30T17:26:43.322Z,5.10
2022-11-30T17:29:10.493Z,5.80
2022-11-30T17:31:37.790Z,6.80
2022-11-30T17:34:05.684Z,9.17
2022-11-30T17:36:32.864Z,7.83
2022-11-30T17:39:03.793Z,21.07
2022-11-30T17:41:31.060Z,33.83
2022-11-30T17:43:58.203Z,34.10
2022-11-30T17:46:25.572Z,32.13
2022-11-30T17:48:52.897Z,31.27
2022-11-30T17:51:20.088Z,22.77
2022-11-30T17:53:47.442Z,29.30
2022-11-30T17:56:17.084Z,25.17
2022-11-30T17:58:45.586Z,27.33
2022-11-30T18:01:21.258Z,22.00
2022-11-30T18:03:49.048Z,18.20
2022-11-30T18:06:17.126Z,8.40
2022-11-30T18:08:44.910Z,6.70
2022-11-30T18:11:19.244Z,7.20
2022-11-30T18:13:47.331Z,7.50
2022-11-30T18:16:18.241Z,5.10
2022-11-30T18:18:48.131Z,5.43
2022-11-30T18:21:19.195Z,5.83
2022-11-30T18:23:47.127Z,7.20
2022-11-30T18:26:20.267Z,9.10
2022-11-30T18:28:59.775Z,6.97
2022-11-30T18:31:29.876Z,5.80
2022-11-30T18:34:01.810Z,7.60
2022-11-30T18:36:29.427Z,6.67
2022-11-30T18:38:56.718Z,6.73
2022-11-30T18:41:26.425Z,6.90
2022-11-30T18:43:54.294Z,7.13
2022-11-30T18:46:21.799Z,6.80
2022-11-30T18:48:50.836Z,6.40
2022-11-30T18:51:27.697Z,5.53
2022-11-30T18:53:59.923Z,7.27
2022-11-30T18:56:30.164Z,6.37
2022-11-30T18:58:59.858Z,5.23
2022-11-30T19:01:28.111Z,4.83
2022-11-30T19:04:00.536Z,4.83
2022-11-30T19:06:29.968Z,4.60
2022-11-30T19:08:57.711Z,5.90
2022-11-30T19:11:25.922Z,7.37
2022-11-30T19:14:00.227Z,7.80
2022-11-30T19:16:29.469Z,12.10
2022-11-30T19:19:00.178Z,10.40
2022-11-30T19:21:27.754Z,7.50
2022-11-30T19:23:56.586Z,6.93
2022-11-30T19:26:23.927Z,6.17
2022-11-30T19:28:55.366Z,6.43
2022-11-30T19:31:23.519Z,5.43
2022-11-30T19:33:52.685Z,5.10
2022-11-30T19:36:25.885Z,4.43
2022-11-30T19:38:53.654Z,4.33
2022-11-30T19:41:21.567Z,4.33
2022-11-30T19:44:03.294Z,4.67
2022-11-30T19:46:32.140Z,3.80
2022-11-30T19:49:01.634Z,3.90
2022-11-30T19:51:30.334Z,3.90
2022-11-30T19:53:57.757Z,4.80
2022-11-30T19:56:25.900Z,5.00
2022-11-30T19:58:53.877Z,4.70
2022-11-30T20:01:23.880Z,5.47
2022-11-30T20:03:53.766Z,4.00
2022-11-30T20:06:26.882Z,3.83
2022-11-30T20:08:55.758Z,4.13
2022-11-30T20:11:23.293Z,4.10
2022-11-30T20:13:51.625Z,4.17
2022-11-30T20:16:20.931Z,5.00
2022-11-30T20:19:00.952Z,5.43
2022-11-30T20:21:31.413Z,4.30
2022-11-30T20:24:02.313Z,5.27
2022-11-30T20:26:32.755Z,5.17
2022-11-30T20:29:01.994Z,5.33
2022-11-30T20:31:31.704Z,4.57
2022-11-30T20:33:59.345Z,6.30
2022-11-30T20:36:26.682Z,4.83
2022-11-30T20:38:54.153Z,5.10
2022-11-30T20:41:24.739Z,4.20
2022-11-30T20:43:53.294Z,4.93
2022-11-30T20:46:23.723Z,6.23
2022-11-30T20:48:54.741Z,5.33
2022-11-30T20:51:33.209Z,4.67
2022-11-30T20:54:04.423Z,4.77
2022-11-30T20:56:32.706Z,5.90
2022-11-30T20:59:06.212Z,4.50
2022-11-30T21:01:34.209Z,4.40
2022-11-30T21:04:01.650Z,5.47
2022-11-30T21:06:30.156Z,6.50
2022-11-30T21:08:58.722Z,5.20
2022-11-30T21:11:27.818Z,4.10
2022-11-30T21:13:55.882Z,3.87
2022-11-30T21:16:28.608Z,4.33
2022-11-30T21:18:58.461Z,4.37
2022-11-30T21:21:34.068Z,6.27
2022-11-30T21:24:04.336Z,5.00
2022-11-30T21:26:38.469Z,5.23
2022-11-30T21:29:11.485Z,4.73
2022-11-30T21:31:38.919Z,4.63
2022-11-30T21:34:06.342Z,3.87
2022-11-30T21:36:33.850Z,4.20
2022-11-30T21:39:06.036Z,4.70
2022-11-30T21:41:36.489Z,4.50
2022-11-30T21:44:04.664Z,4.20
2022-11-30T21:46:32.346Z,4.60
2022-11-30T21:49:00.038Z,6.10
2022-11-30T21:51:28.902Z,5.87
2022-11-30T21:53:59.185Z,6.17
2022-11-30T21:56:35.333Z,5.50
2022-11-30T21:59:05.462Z,6.27
2022-11-30T22:01:35.714Z,6.40
2022-11-30T22:04:05.015Z,5.27
2022-11-30T22:06:34.158Z,5.90
2022-11-30T22:09:08.041Z,5.03
2022-11-30T22:11:39.137Z,5.83
2022-11-30T22:14:08.006Z,5.70
2022-11-30T22:16:36.560Z,4.80
2022-11-30T22:19:05.549Z,5.10
2022-11-30T22:21:32.966Z,5.27
2022-11-30T22:24:09.811Z,4.87
2022-11-30T22:26:39.771Z,5.03
2022-11-30T22:29:14.181Z,4.60
2022-11-30T22:31:44.180Z,4.57
2022-11-30T22:34:11.873Z,4.90
2022-11-30T22:36:41.748Z,5.53
2022-11-30T22:39:12.757Z,5.43
2022-11-30T22:41:41.844Z,6.13
2022-11-30T22:44:13.285Z,5.27
2022-11-30T22:46:41.089Z,5.27
2022-11-30T22:49:15.825Z,4.67
2022-11-30T22:51:46.162Z,5.50
2022-11-30T22:54:13.443Z,4.47
2022-11-30T22:56:41.629Z,4.50
2022-11-30T22:59:12.108Z,4.53
2022-11-30T23:01:43.209Z,4.77
2022-11-30T23:04:13.185Z,5.30
2022-11-30T23:06:42.527Z,4.93
2022-11-30T23:09:14.012Z,5.00
2022-11-30T23:11:41.552Z,4.90
2022-11-30T23:14:09.719Z,5.03
2022-11-30T23:16:37.484Z,5.07
2022-11-30T23:19:06.236Z,5.00
2022-11-30T23:21:41.710Z,4.93
2022-11-30T23:24:14.723Z,4.67
2022-11-30T23:26:45.262Z,4.93
2022-11-30T23:29:14.672Z,4.30
2022-11-30T23:31:43.943Z,4.70
2022-11-30T23:34:17.292Z,5.00
2022-11-30T23:36:45.174Z,5.07
2022-11-30T23:39:15.044Z,5.27
2022-11-30T23:41:42.708Z,5.13
2022-11-30T23:44:10.861Z,5.07
2022-11-30T23:46:38.624Z,5.33
2022-11-30T23:49:05.875Z,5.23
2022-11-30T23:51:33.108Z,5.43
2022-11-30T23:54:00.315Z,5.10
2022-11-30T23:56:27.525Z,4.97
2022-11-30T23:58:54.712Z,5.10
